createdAt,value
2023-05-14T00:00:52.718Z,12.17
2023-05-14T00:01:53.624Z,12.20
2023-05-14T00:02:54.612Z,12.21
2023-05-14T00:03:55.251Z,12.23
2023-05-14T00:04:55.703Z,12.23
2023-05-14T00:05:56.591Z,12.23
2023-05-14T00:06:57.489Z,12.23
2023-05-14T00:07:58.382Z,12.23
2023-05-14T00:08:59.376Z,12.21
2023-05-14T00:09:59.843Z,12.21
2023-05-14T00:11:00.721Z,12.20
2023-05-14T00:12:01.616Z,12.21
2023-05-14T00:13:02.542Z,12.23
2023-05-14T00:14:03.438Z,12.19
2023-05-14T00:15:04.335Z,12.17
2023-05-14T00:16:05.227Z,12.16
2023-05-14T00:17:06.126Z,12.13
2023-05-14T00:18:07.292Z,12.10
2023-05-14T00:19:07.766Z,12.02
2023-05-14T00:20:08.688Z,11.96
2023-05-14T00:21:09.562Z,11.91
2023-05-14T00:22:10.473Z,11.86
2023-05-14T00:23:11.392Z,11.83
2023-05-14T00:24:12.291Z,11.78
2023-05-14T00:25:13.198Z,11.76
2023-05-14T00:26:14.107Z,11.75
2023-05-14T00:27:15.100Z,11.72
2023-05-14T00:28:15.575Z,11.67
2023-05-14T00:29:16.469Z,11.67
2023-05-14T00:30:17.382Z,11.67
2023-05-14T00:31:18.303Z,11.67
2023-05-14T00:32:19.317Z,11.67
2023-05-14T00:33:19.677Z,11.65
2023-05-14T00:34:20.657Z,11.64
2023-05-14T00:35:21.616Z,11.62
2023-05-14T00:36:22.028Z,11.62
2023-05-14T00:37:22.936Z,11.62
2023-05-14T00:38:23.834Z,11.60
2023-05-14T00:39:24.748Z,11.61
2023-05-14T00:40:25.747Z,11.61
2023-05-14T00:41:26.193Z,11.52
2023-05-14T00:42:27.109Z,11.43
2023-05-14T00:43:27.995Z,11.36
2023-05-14T00:44:28.883Z,11.25
2023-05-14T00:45:29.776Z,11.19
2023-05-14T00:46:30.747Z,11.22
2023-05-14T00:47:31.646Z,11.25
2023-05-14T00:48:32.532Z,11.28
2023-05-14T00:49:33.464Z,11.24
2023-05-14T00:50:34.364Z,11.15
2023-05-14T00:51:35.266Z,11.09
2023-05-14T00:52:36.172Z,11.04
2023-05-14T00:53:37.063Z,11.02
2023-05-14T00:54:37.968Z,10.99
2023-05-14T00:55:38.906Z,10.99
2023-05-14T00:56:39.806Z,10.97
2023-05-14T00:57:40.386Z,11.02
2023-05-14T00:58:41.309Z,11.04
2023-05-14T00:59:42.222Z,11.04
2023-05-14T01:00:43.263Z,11.09
2023-05-14T01:01:43.659Z,11.14
2023-05-14T01:02:44.658Z,11.17
2023-05-14T01:03:45.200Z,11.17
2023-05-14T01:04:45.672Z,11.15
2023-05-14T01:05:46.574Z,11.15
2023-05-14T01:06:47.494Z,11.14
2023-05-14T01:07:48.390Z,11.11
2023-05-14T01:08:49.276Z,11.11
2023-05-14T01:09:50.208Z,11.11
2023-05-14T01:10:51.114Z,11.14
2023-05-14T01:11:52.008Z,11.15
2023-05-14T01:12:52.920Z,11.15
2023-05-14T01:13:53.818Z,11.17
2023-05-14T01:14:54.717Z,11.17
2023-05-14T01:15:55.616Z,11.17
2023-05-14T01:16:56.690Z,11.15
2023-05-14T01:17:57.190Z,11.17
2023-05-14T01:18:58.102Z,11.17
2023-05-14T01:19:58.968Z,11.15
2023-05-14T01:20:59.898Z,11.15
2023-05-14T01:22:00.823Z,11.11
2023-05-14T01:23:01.718Z,11.10
2023-05-14T01:24:02.636Z,11.07
2023-05-14T01:25:03.527Z,11.03
2023-05-14T01:26:04.428Z,10.97
2023-05-14T01:27:05.322Z,10.94
2023-05-14T01:28:06.260Z,10.92
2023-05-14T01:29:07.171Z,10.94
2023-05-14T01:30:08.059Z,10.89
2023-05-14T01:31:08.974Z,10.88
2023-05-14T01:32:09.999Z,10.89
2023-05-14T01:33:10.410Z,10.89
2023-05-14T01:34:11.311Z,10.86
2023-05-14T01:35:12.203Z,10.88
2023-05-14T01:36:13.131Z,10.89
2023-05-14T01:37:14.039Z,10.94
2023-05-14T01:38:14.921Z,10.97
2023-05-14T01:39:15.817Z,11.00
2023-05-14T01:40:16.761Z,11.02
2023-05-14T01:41:17.631Z,10.96
2023-05-14T01:42:18.538Z,10.88
2023-05-14T01:43:19.530Z,10.84
2023-05-14T01:44:19.951Z,10.82
2023-05-14T01:45:20.848Z,10.81
2023-05-14T01:46:21.838Z,10.82
2023-05-14T01:47:22.752Z,10.84
2023-05-14T01:48:23.700Z,10.82
2023-05-14T01:49:24.591Z,10.82
2023-05-14T01:50:25.699Z,10.85
2023-05-14T01:51:26.227Z,10.82
2023-05-14T01:52:27.118Z,10.78
2023-05-14T01:53:27.996Z,10.64
2023-05-14T01:54:28.884Z,10.60
2023-05-14T01:55:29.815Z,10.60
2023-05-14T01:56:30.751Z,10.59
2023-05-14T01:57:31.659Z,10.59
2023-05-14T01:58:32.565Z,10.56
2023-05-14T01:59:33.448Z,10.59
2023-05-14T02:00:34.374Z,10.60
2023-05-14T02:01:35.320Z,10.63
2023-05-14T02:02:36.296Z,10.61
2023-05-14T02:03:37.168Z,10.63
2023-05-14T02:04:38.075Z,10.60
2023-05-14T02:05:38.981Z,10.59
2023-05-14T02:06:39.890Z,10.53
2023-05-14T02:07:40.776Z,10.51
2023-05-14T02:08:41.675Z,10.48
2023-05-14T02:09:42.593Z,10.44
2023-05-14T02:10:43.532Z,10.42
2023-05-14T02:11:44.406Z,10.40
2023-05-14T02:12:45.345Z,10.41
2023-05-14T02:13:46.218Z,10.42
2023-05-14T02:14:47.144Z,10.42
2023-05-14T02:15:48.062Z,10.47
2023-05-14T02:16:48.959Z,10.48
2023-05-14T02:17:49.896Z,10.52
2023-05-14T02:18:50.850Z,10.51
2023-05-14T02:19:51.746Z,10.47
2023-05-14T02:20:52.658Z,10.44
2023-05-14T02:21:53.569Z,10.40
2023-05-14T02:22:54.445Z,10.42
2023-05-14T02:23:55.369Z,10.41
2023-05-14T02:24:56.301Z,10.40
2023-05-14T02:25:57.194Z,10.40
2023-05-14T02:26:58.095Z,10.41
2023-05-14T02:27:58.988Z,10.41
2023-05-14T02:28:59.916Z,10.44
2023-05-14T02:30:00.944Z,10.44
2023-05-14T02:31:01.373Z,10.44
2023-05-14T02:32:02.248Z,10.45
2023-05-14T02:33:03.325Z,10.38
2023-05-14T02:34:03.741Z,10.27
2023-05-14T02:35:04.669Z,10.17
2023-05-14T02:36:05.558Z,10.07
2023-05-14T02:37:06.526Z,10.01
2023-05-14T02:38:07.441Z,9.96
2023-05-14T02:39:08.338Z,9.94
2023-05-14T02:40:09.236Z,9.91
2023-05-14T02:41:10.188Z,9.89
2023-05-14T02:42:10.928Z,9.87
2023-05-14T02:43:11.854Z,9.87
2023-05-14T02:44:12.749Z,9.86
2023-05-14T02:45:13.657Z,9.87
2023-05-14T02:46:14.571Z,9.90
2023-05-14T02:47:15.467Z,9.90
2023-05-14T02:48:16.357Z,9.90
2023-05-14T02:49:17.250Z,9.90
2023-05-14T02:50:18.138Z,9.94
2023-05-14T02:51:19.051Z,10.01
2023-05-14T02:52:19.985Z,10.05
2023-05-14T02:53:20.880Z,10.08
2023-05-14T02:54:21.760Z,10.12
2023-05-14T02:55:22.657Z,10.12
2023-05-14T02:56:23.639Z,10.08
2023-05-14T02:57:24.682Z,10.07
2023-05-14T02:58:25.912Z,10.08
2023-05-14T02:59:26.834Z,10.05
2023-05-14T03:00:26.630Z,10.02
2023-05-14T03:01:27.404Z,9.99
2023-05-14T03:02:28.219Z,9.89
2023-05-14T03:03:29.314Z,9.81
2023-05-14T03:04:30.048Z,9.74
2023-05-14T03:05:30.917Z,9.66
2023-05-14T03:06:31.848Z,9.60
2023-05-14T03:07:32.751Z,9.54
2023-05-14T03:08:33.626Z,9.47
2023-05-14T03:09:36.006Z,9.33
2023-05-14T03:10:35.302Z,9.29
2023-05-14T03:11:36.214Z,9.26
2023-05-14T03:12:37.099Z,9.35
2023-05-14T03:13:37.988Z,9.36
2023-05-14T03:14:38.907Z,9.40
2023-05-14T03:15:39.823Z,9.42
2023-05-14T03:16:40.783Z,9.47
2023-05-14T03:17:41.698Z,9.50
2023-05-14T03:18:42.656Z,9.54
2023-05-14T03:19:43.124Z,9.53
2023-05-14T03:20:44.122Z,9.57
2023-05-14T03:21:44.673Z,9.61
2023-05-14T03:22:45.573Z,9.66
2023-05-14T03:23:46.469Z,9.66
2023-05-14T03:24:47.375Z,9.64
2023-05-14T03:25:48.292Z,9.51
2023-05-14T03:26:49.278Z,9.40
2023-05-14T03:27:50.092Z,9.46
2023-05-14T03:28:50.996Z,9.46
2023-05-14T03:29:51.986Z,9.46
2023-05-14T03:30:52.427Z,9.47
2023-05-14T03:31:53.375Z,9.43
2023-05-14T03:32:54.327Z,9.42
2023-05-14T03:33:55.226Z,9.46
2023-05-14T03:34:56.160Z,9.47
2023-05-14T03:35:57.102Z,9.50
2023-05-14T03:36:57.965Z,9.50
2023-05-14T03:37:58.894Z,9.56
2023-05-14T03:38:59.870Z,9.57
2023-05-14T03:40:00.292Z,9.57
2023-05-14T03:41:01.190Z,9.53
2023-05-14T03:42:02.076Z,9.43
2023-05-14T03:43:02.976Z,9.35
2023-05-14T03:44:03.892Z,9.31
2023-05-14T03:45:04.808Z,9.32
2023-05-14T03:46:05.761Z,9.38
2023-05-14T03:47:06.677Z,9.42
2023-05-14T03:48:07.889Z,9.47
2023-05-14T03:49:08.445Z,9.51
2023-05-14T03:50:08.889Z,9.57
2023-05-14T03:51:09.778Z,9.65
2023-05-14T03:52:10.658Z,9.61
2023-05-14T03:53:11.608Z,9.61
2023-05-14T03:54:12.500Z,9.56
2023-05-14T03:55:13.390Z,9.54
2023-05-14T03:56:14.296Z,9.57
2023-05-14T03:57:15.204Z,9.58
2023-05-14T03:58:16.163Z,9.56
2023-05-14T03:59:17.036Z,9.51
2023-05-14T04:00:17.944Z,9.46
2023-05-14T04:01:18.886Z,9.40
2023-05-14T04:02:19.852Z,9.36
2023-05-14T04:03:20.852Z,9.38
2023-05-14T04:04:21.511Z,9.42
2023-05-14T04:05:21.973Z,9.47
2023-05-14T04:06:22.924Z,9.54
2023-05-14T04:07:23.985Z,9.61
2023-05-14T04:08:24.459Z,9.68
2023-05-14T04:09:25.379Z,9.78
2023-05-14T04:10:26.299Z,9.86
2023-05-14T04:11:27.228Z,9.91
2023-05-14T04:12:28.140Z,9.97
2023-05-14T04:13:29.046Z,10.04
2023-05-14T04:14:29.951Z,10.09
2023-05-14T04:15:30.873Z,10.14
2023-05-14T04:16:31.805Z,10.22
2023-05-14T04:17:34.993Z,10.26
2023-05-14T04:18:33.529Z,10.33
2023-05-14T04:19:34.436Z,10.40
2023-05-14T04:20:35.327Z,10.44
2023-05-14T04:21:36.252Z,10.42
2023-05-14T04:22:37.193Z,10.42
2023-05-14T04:23:38.074Z,10.40
2023-05-14T04:24:38.960Z,10.34
2023-05-14T04:25:39.878Z,10.33
2023-05-14T04:26:40.854Z,10.32
2023-05-14T04:27:41.766Z,10.30
2023-05-14T04:28:42.672Z,10.30
2023-05-14T04:29:43.553Z,10.30
2023-05-14T04:30:44.506Z,10.40
2023-05-14T04:34:40.252Z,10.56
2023-05-14T04:35:41.188Z,10.52
2023-05-14T04:36:42.082Z,10.51
2023-05-14T04:37:42.963Z,10.51
2023-05-14T04:38:43.893Z,10.48
2023-05-14T04:39:44.806Z,10.59
2023-05-14T04:40:45.720Z,10.66
2023-05-14T04:41:46.631Z,10.73
2023-05-14T04:42:47.507Z,10.81
2023-05-14T04:43:48.411Z,10.88
2023-05-14T04:44:49.320Z,10.96
2023-05-14T04:45:50.254Z,11.03
2023-05-14T04:46:51.134Z,11.10
2023-05-14T04:47:52.065Z,11.18
2023-05-14T04:48:52.958Z,11.24
2023-05-14T04:49:53.895Z,11.29
2023-05-14T04:50:54.778Z,11.28
2023-05-14T04:51:55.667Z,11.24
2023-05-14T04:52:56.554Z,11.19
2023-05-14T04:53:57.502Z,11.19
2023-05-14T04:54:58.375Z,11.17
2023-05-14T04:55:59.286Z,11.21
2023-05-14T04:57:00.160Z,11.24
2023-05-14T04:58:01.077Z,11.28
2023-05-14T04:59:01.988Z,11.33
2023-05-14T05:00:02.880Z,11.35
2023-05-14T05:01:03.847Z,11.35
2023-05-14T05:02:04.732Z,11.32
2023-05-14T05:03:05.768Z,11.37
2023-05-14T05:04:06.366Z,11.40
2023-05-14T05:05:07.240Z,11.44
2023-05-14T05:06:08.142Z,11.49
2023-05-14T05:07:09.013Z,11.49
2023-05-14T05:08:09.945Z,11.51
2023-05-14T05:09:10.870Z,11.51
2023-05-14T05:10:11.726Z,11.47
2023-05-14T05:11:12.607Z,11.47
2023-05-14T05:12:13.519Z,11.51
2023-05-14T05:13:14.416Z,11.51
2023-05-14T05:14:15.325Z,11.51
2023-05-14T05:15:16.227Z,11.54
2023-05-14T05:16:17.148Z,11.55
2023-05-14T05:17:18.092Z,11.57
2023-05-14T05:18:18.970Z,11.57
2023-05-14T05:19:26.566Z,11.60
2023-05-14T05:20:21.790Z,11.64
2023-05-14T05:21:21.272Z,11.65
2023-05-14T05:22:22.204Z,11.70
2023-05-14T05:23:23.095Z,11.76
2023-05-14T05:24:24.000Z,11.76
2023-05-14T05:25:24.867Z,11.76
2023-05-14T05:26:25.789Z,11.79
2023-05-14T05:27:26.702Z,11.82
2023-05-14T05:28:27.600Z,11.80
2023-05-14T05:29:28.504Z,11.80
2023-05-14T05:30:29.389Z,11.78
2023-05-14T05:31:30.345Z,11.76
2023-05-14T05:32:31.342Z,11.75
2023-05-14T05:33:31.733Z,11.76
2023-05-14T05:34:32.633Z,11.82
2023-05-14T05:35:33.527Z,11.85
2023-05-14T05:36:34.444Z,11.91
2023-05-14T05:37:35.336Z,12.02
2023-05-14T05:38:36.238Z,12.12
2023-05-14T05:39:37.138Z,12.20
2023-05-14T05:40:38.049Z,12.24
2023-05-14T05:41:38.962Z,12.29
2023-05-14T05:42:39.869Z,12.34
2023-05-14T05:43:40.745Z,12.42
2023-05-14T05:44:41.671Z,12.53
2023-05-14T05:45:42.577Z,12.60
2023-05-14T05:46:43.504Z,12.70
2023-05-14T05:47:44.466Z,12.78
2023-05-14T05:48:45.316Z,12.90
2023-05-14T05:49:46.257Z,13.00
2023-05-14T05:50:47.194Z,13.11
2023-05-14T05:51:48.067Z,13.23
2023-05-14T05:52:48.957Z,13.36
2023-05-14T05:53:49.867Z,13.44
2023-05-14T05:54:50.781Z,13.54
2023-05-14T05:55:51.719Z,13.66
2023-05-14T05:56:52.663Z,13.75
2023-05-14T05:57:53.541Z,13.85
2023-05-14T05:58:54.456Z,13.96
2023-05-14T05:59:55.345Z,14.06
2023-05-14T06:00:56.283Z,14.17
2023-05-14T06:01:57.226Z,14.29
2023-05-14T06:02:58.124Z,14.42
2023-05-14T06:03:59.037Z,14.52
2023-05-14T06:04:59.959Z,14.58
2023-05-14T06:06:00.866Z,14.62
2023-05-14T06:07:01.751Z,14.70
2023-05-14T06:08:02.649Z,14.73
2023-05-14T06:09:03.592Z,14.83
2023-05-14T06:10:04.490Z,14.88
2023-05-14T06:11:05.361Z,14.98
2023-05-14T06:12:06.260Z,15.09
2023-05-14T06:13:07.202Z,15.13
2023-05-14T06:14:08.120Z,15.21
2023-05-14T06:15:09.026Z,15.28
2023-05-14T06:16:09.985Z,15.27
2023-05-14T06:17:10.897Z,15.25
2023-05-14T06:18:11.819Z,15.28
2023-05-14T06:19:12.813Z,15.35
2023-05-14T06:20:13.227Z,15.43
2023-05-14T06:21:14.130Z,15.51
2023-05-14T06:22:15.017Z,15.50
2023-05-14T06:23:15.918Z,15.65
2023-05-14T06:24:16.804Z,15.75
2023-05-14T06:25:17.722Z,15.84
2023-05-14T06:26:18.592Z,15.93
2023-05-14T06:27:19.523Z,16.02
2023-05-14T06:28:20.403Z,16.08
2023-05-14T06:29:21.307Z,16.20
2023-05-14T06:30:22.527Z,16.27
2023-05-14T06:31:23.090Z,16.33
2023-05-14T06:32:24.219Z,16.42
2023-05-14T06:33:24.703Z,16.46
2023-05-14T06:34:25.581Z,16.56
2023-05-14T06:35:26.479Z,16.57
2023-05-14T06:36:27.450Z,16.52
2023-05-14T06:37:27.911Z,16.57
2023-05-14T06:38:28.830Z,16.60
2023-05-14T06:39:29.710Z,16.61
2023-05-14T06:40:30.621Z,16.67
2023-05-14T06:41:31.514Z,16.75
2023-05-14T06:42:32.402Z,16.85
2023-05-14T06:43:33.292Z,16.94
2023-05-14T06:44:34.173Z,17.03
2023-05-14T06:45:35.196Z,17.06
2023-05-14T06:46:36.085Z,17.07
2023-05-14T06:47:37.031Z,17.11
2023-05-14T06:48:37.963Z,17.11
2023-05-14T06:49:38.840Z,17.15
2023-05-14T06:50:39.720Z,17.30
2023-05-14T06:51:40.647Z,17.48
2023-05-14T06:52:41.560Z,17.66
2023-05-14T06:53:42.459Z,17.90
2023-05-14T06:54:43.394Z,18.02
2023-05-14T06:55:44.322Z,18.17
2023-05-14T06:56:45.218Z,18.23
2023-05-14T06:57:46.106Z,18.35
2023-05-14T06:58:47.020Z,18.47
2023-05-14T06:59:47.901Z,18.70
2023-05-14T07:00:48.814Z,18.81
2023-05-14T07:01:49.878Z,19.02
2023-05-14T07:02:50.411Z,19.22
2023-05-14T07:03:51.396Z,19.29
2023-05-14T07:04:52.281Z,19.23
2023-05-14T07:05:53.190Z,18.94
2023-05-14T07:06:54.076Z,18.92
2023-05-14T07:07:54.958Z,18.95
2023-05-14T07:08:55.882Z,19.10
2023-05-14T07:09:56.811Z,19.02
2023-05-14T07:10:57.749Z,19.06
2023-05-14T07:11:58.627Z,19.07
2023-05-14T07:12:59.508Z,19.04
2023-05-14T07:14:00.393Z,19.02
2023-05-14T07:15:01.364Z,18.98
2023-05-14T07:16:01.828Z,19.02
2023-05-14T07:17:02.798Z,19.02
2023-05-14T07:18:03.736Z,19.21
2023-05-14T07:19:04.721Z,19.33
2023-05-14T07:20:05.638Z,19.46
2023-05-14T07:21:06.622Z,19.36
2023-05-14T07:22:07.527Z,19.39
2023-05-14T07:23:07.976Z,19.50
2023-05-14T07:24:08.876Z,19.69
2023-05-14T07:25:09.759Z,19.81
2023-05-14T07:26:10.679Z,19.92
2023-05-14T07:27:11.540Z,19.87
2023-05-14T07:28:12.427Z,19.88
2023-05-14T07:29:13.376Z,19.98
2023-05-14T07:30:14.255Z,20.05
2023-05-14T07:31:15.149Z,19.98
2023-05-14T07:32:16.033Z,19.87
2023-05-14T07:33:16.969Z,19.66
2023-05-14T07:34:17.901Z,19.66
2023-05-14T07:35:18.832Z,19.69
2023-05-14T07:36:19.700Z,19.76
2023-05-14T07:37:21.944Z,19.92
2023-05-14T07:38:21.515Z,20.08
2023-05-14T07:39:22.408Z,20.20
2023-05-14T07:40:23.469Z,20.18
2023-05-14T07:41:24.007Z,20.16
2023-05-14T07:42:35.255Z,20.21
2023-05-14T07:43:26.711Z,20.29
2023-05-14T07:44:26.604Z,20.39
2023-05-14T07:45:27.490Z,20.48
2023-05-14T07:46:28.370Z,20.62
2023-05-14T07:47:29.379Z,20.58
2023-05-14T07:48:29.823Z,20.54
2023-05-14T07:49:30.690Z,20.33
2023-05-14T07:50:31.578Z,20.01
2023-05-14T07:51:32.467Z,19.95
2023-05-14T07:52:33.376Z,20.11
2023-05-14T07:53:34.276Z,20.28
2023-05-14T07:54:35.147Z,20.21
2023-05-14T07:55:36.031Z,20.14
2023-05-14T07:56:36.965Z,20.05
2023-05-14T07:57:37.867Z,20.05
2023-05-14T07:58:38.368Z,20.08
2023-05-14T07:59:39.258Z,20.13
2023-05-14T08:00:40.214Z,20.18
2023-05-14T08:01:40.838Z,20.29
2023-05-14T08:02:41.386Z,20.29
2023-05-14T08:03:41.836Z,20.33
2023-05-14T08:04:42.772Z,20.39
2023-05-14T08:05:43.690Z,20.52
2023-05-14T08:06:44.636Z,20.67
2023-05-14T08:07:45.530Z,20.85
2023-05-14T08:08:46.421Z,20.74
2023-05-14T08:09:47.336Z,20.85
2023-05-14T08:10:48.307Z,20.62
2023-05-14T08:11:49.340Z,20.36
2023-05-14T08:12:57.340Z,20.28
2023-05-14T08:13:50.694Z,20.43
2023-05-14T08:14:51.566Z,20.58
2023-05-14T08:15:52.481Z,20.76
2023-05-14T08:16:53.439Z,20.95
2023-05-14T08:17:54.418Z,20.99
2023-05-14T08:18:54.946Z,21.01
2023-05-14T08:19:55.874Z,21.06
2023-05-14T08:20:57.151Z,21.12
2023-05-14T08:21:57.496Z,21.12
2023-05-14T08:22:58.401Z,21.04
2023-05-14T08:23:59.260Z,21.12
2023-05-14T08:25:00.190Z,21.29
2023-05-14T08:26:01.058Z,21.49
2023-05-14T08:27:01.969Z,21.65
2023-05-14T08:28:02.830Z,21.65
2023-05-14T08:29:03.715Z,21.67
2023-05-14T08:30:04.674Z,21.64
2023-05-14T08:31:05.648Z,21.44
2023-05-14T08:32:19.402Z,21.27
2023-05-14T08:33:08.321Z,21.28
2023-05-14T08:34:08.230Z,21.31
2023-05-14T08:35:09.136Z,21.38
2023-05-14T08:36:10.053Z,21.44
2023-05-14T08:37:10.945Z,21.61
2023-05-14T08:38:11.824Z,21.65
2023-05-14T08:39:12.738Z,21.69
2023-05-14T08:40:13.636Z,21.74
2023-05-14T08:41:14.510Z,21.84
2023-05-14T08:42:15.442Z,21.74
2023-05-14T08:43:16.364Z,21.61
2023-05-14T08:44:17.300Z,21.62
2023-05-14T08:45:18.199Z,21.64
2023-05-14T08:46:19.124Z,21.72
2023-05-14T08:47:20.023Z,21.82
2023-05-14T08:48:21.018Z,21.83
2023-05-14T08:49:21.423Z,21.71
2023-05-14T08:50:23.206Z,21.75
2023-05-14T08:51:23.026Z,21.88
2023-05-14T08:52:23.918Z,22.09
2023-05-14T08:53:24.835Z,22.17
2023-05-14T08:54:25.730Z,22.20
2023-05-14T08:55:26.628Z,22.15
2023-05-14T08:56:27.545Z,22.25
2023-05-14T08:57:28.516Z,22.24
2023-05-14T08:58:29.386Z,22.07
2023-05-14T08:59:30.284Z,22.00
2023-05-14T09:00:31.204Z,21.96
2023-05-14T09:01:32.189Z,22.02
2023-05-14T09:02:33.331Z,21.98
2023-05-14T09:03:33.757Z,22.09
2023-05-14T09:04:34.794Z,22.20
2023-05-14T09:05:35.306Z,22.36
2023-05-14T09:06:36.193Z,22.54
2023-05-14T09:07:37.116Z,22.43
2023-05-14T09:08:38.020Z,22.45
2023-05-14T09:09:39.576Z,22.47
2023-05-14T09:10:39.517Z,22.65
2023-05-14T09:11:40.428Z,22.73
2023-05-14T09:12:41.421Z,22.58
2023-05-14T09:13:42.254Z,22.64
2023-05-14T09:14:43.144Z,22.75
2023-05-14T09:15:44.023Z,22.83
2023-05-14T09:16:45.073Z,23.07
2023-05-14T09:17:45.447Z,23.17
2023-05-14T09:18:46.341Z,23.19
2023-05-14T09:19:47.202Z,23.16
2023-05-14T09:20:48.116Z,23.02
2023-05-14T09:21:49.145Z,22.88
2023-05-14T09:22:49.528Z,22.75
2023-05-14T09:23:50.412Z,22.86
2023-05-14T09:24:51.302Z,23.00
2023-05-14T09:25:52.258Z,23.04
2023-05-14T09:26:53.255Z,23.16
2023-05-14T09:27:54.790Z,23.15
2023-05-14T09:28:54.992Z,23.31
2023-05-14T09:29:55.881Z,23.32
2023-05-14T09:30:56.820Z,23.27
2023-05-14T09:31:57.794Z,23.38
2023-05-14T09:32:58.337Z,23.50
2023-05-14T09:33:59.183Z,23.47
2023-05-14T09:35:00.106Z,23.58
2023-05-14T09:36:01.022Z,23.53
2023-05-14T09:37:01.900Z,23.43
2023-05-14T09:38:02.788Z,23.57
2023-05-14T09:39:03.681Z,23.63
2023-05-14T09:40:04.596Z,23.70
2023-05-14T09:41:05.490Z,23.73
2023-05-14T09:42:08.056Z,23.70
2023-05-14T09:43:06.988Z,23.75
2023-05-14T09:44:07.861Z,23.90
2023-05-14T09:45:08.856Z,23.95
2023-05-14T09:46:09.732Z,23.84
2023-05-14T09:47:10.711Z,23.85
2023-05-14T09:48:11.187Z,24.06
2023-05-14T09:49:12.089Z,24.13
2023-05-14T09:50:12.998Z,24.10
2023-05-14T09:51:13.910Z,24.02
2023-05-14T09:52:14.782Z,23.84
2023-05-14T09:53:15.674Z,23.83
2023-05-14T09:54:16.595Z,23.84
2023-05-14T09:55:17.496Z,23.93
2023-05-14T09:56:18.385Z,24.05
2023-05-14T09:57:19.295Z,24.08
2023-05-14T09:58:20.225Z,24.00
2023-05-14T09:59:21.186Z,24.08
2023-05-14T10:00:21.807Z,24.21
2023-05-14T10:01:22.496Z,24.45
2023-05-14T10:02:22.965Z,24.47
2023-05-14T10:03:23.908Z,24.60
2023-05-14T10:04:24.885Z,24.64
2023-05-14T10:05:25.719Z,24.47
2023-05-14T10:06:26.608Z,24.43
2023-05-14T10:07:27.511Z,24.28
2023-05-14T10:08:28.742Z,24.46
2023-05-14T10:09:29.136Z,24.42
2023-05-14T10:10:30.039Z,24.47
2023-05-14T10:11:30.947Z,24.61
2023-05-14T10:12:31.819Z,24.69
2023-05-14T10:13:32.859Z,24.76
2023-05-14T10:14:33.749Z,24.68
2023-05-14T10:15:34.686Z,24.60
2023-05-14T10:16:35.674Z,24.64
2023-05-14T10:17:36.598Z,24.84
2023-05-14T10:18:37.564Z,24.91
2023-05-14T10:19:37.984Z,24.91
2023-05-14T10:20:38.904Z,24.85
2023-05-14T10:21:39.808Z,24.95
2023-05-14T10:22:40.778Z,24.95
2023-05-14T10:23:41.206Z,24.99
2023-05-14T10:24:42.113Z,25.06
2023-05-14T10:25:43.553Z,25.10
2023-05-14T10:26:43.539Z,24.96
2023-05-14T10:27:44.493Z,24.67
2023-05-14T10:28:45.431Z,24.46
2023-05-14T10:29:46.347Z,24.45
2023-05-14T10:30:46.987Z,24.57
2023-05-14T10:31:47.807Z,24.85
2023-05-14T10:32:48.325Z,24.90
2023-05-14T10:33:49.222Z,24.46
2023-05-14T10:34:50.085Z,24.12
2023-05-14T10:35:51.016Z,23.91
2023-05-14T10:36:52.001Z,24.08
2023-05-14T10:37:52.901Z,24.16
2023-05-14T10:38:53.798Z,24.30
2023-05-14T10:39:54.832Z,24.57
2023-05-14T10:40:55.795Z,24.77
2023-05-14T10:41:56.269Z,24.80
2023-05-14T10:42:57.210Z,24.78
2023-05-14T10:43:57.935Z,24.77
2023-05-14T10:44:58.980Z,24.73
2023-05-14T10:45:59.368Z,24.61
2023-05-14T10:47:00.339Z,24.58
2023-05-14T10:48:01.316Z,24.58
2023-05-14T10:49:02.252Z,24.53
2023-05-14T10:50:03.216Z,24.46
2023-05-14T10:51:04.221Z,24.39
2023-05-14T10:52:04.567Z,24.45
2023-05-14T10:53:05.514Z,24.46
2023-05-14T10:54:05.988Z,24.30
2023-05-14T10:55:07.007Z,24.00
2023-05-14T10:56:07.383Z,24.09
2023-05-14T10:57:08.319Z,24.21
2023-05-14T10:58:09.195Z,24.32
2023-05-14T10:59:10.091Z,24.45
2023-05-14T11:00:11.031Z,24.64
2023-05-14T11:01:11.943Z,24.84
2023-05-14T11:02:12.974Z,24.90
2023-05-14T11:03:13.515Z,25.00
2023-05-14T11:04:14.065Z,25.18
2023-05-14T11:05:14.947Z,25.06
2023-05-14T11:06:15.943Z,25.13
2023-05-14T11:07:16.413Z,25.27
2023-05-14T11:08:17.289Z,25.10
2023-05-14T11:09:18.218Z,25.02
2023-05-14T11:10:19.199Z,25.00
2023-05-14T11:11:19.632Z,24.91
2023-05-14T11:12:20.623Z,24.91
2023-05-14T11:13:21.080Z,25.13
2023-05-14T11:14:22.466Z,25.32
2023-05-14T11:15:22.833Z,25.55
2023-05-14T11:16:24.185Z,25.45
2023-05-14T11:17:24.773Z,24.98
2023-05-14T11:18:25.715Z,24.50
2023-05-14T11:19:26.702Z,24.02
2023-05-14T11:20:27.509Z,23.58
2023-05-14T11:21:28.011Z,23.20
2023-05-14T11:22:28.932Z,23.12
2023-05-14T11:23:29.879Z,23.55
2023-05-14T11:24:30.795Z,23.97
2023-05-14T11:25:31.705Z,24.28
2023-05-14T11:26:32.676Z,24.50
2023-05-14T11:27:34.073Z,24.80
2023-05-14T11:28:33.995Z,25.06
2023-05-14T11:29:34.910Z,25.33
2023-05-14T11:30:35.824Z,25.45
2023-05-14T11:31:36.550Z,25.57
2023-05-14T11:32:37.454Z,25.52
2023-05-14T11:33:38.334Z,25.62
2023-05-14T11:34:39.263Z,25.73
2023-05-14T11:35:40.241Z,25.91
2023-05-14T11:36:41.155Z,25.58
2023-05-14T11:37:41.629Z,25.23
2023-05-14T11:38:42.522Z,24.85
2023-05-14T11:39:43.414Z,24.88
2023-05-14T11:40:44.307Z,24.52
2023-05-14T11:41:45.246Z,24.15
2023-05-14T11:42:46.217Z,24.20
2023-05-14T11:43:47.139Z,24.60
2023-05-14T11:44:48.084Z,24.93
2023-05-14T11:45:49.018Z,25.25
2023-05-14T11:46:50.093Z,25.60
2023-05-14T11:47:50.718Z,25.88
2023-05-14T11:48:51.174Z,25.95
2023-05-14T11:49:52.097Z,25.90
2023-05-14T11:50:53.112Z,25.83
2023-05-14T11:51:53.575Z,25.46
2023-05-14T11:52:54.495Z,25.36
2023-05-14T11:53:55.489Z,25.47
2023-05-14T11:54:55.992Z,25.50
2023-05-14T11:55:56.879Z,25.43
2023-05-14T11:56:57.828Z,25.47
2023-05-14T11:57:58.743Z,25.25
2023-05-14T11:58:59.631Z,25.14
2023-05-14T12:00:00.534Z,25.28
2023-05-14T12:01:01.465Z,25.02
2023-05-14T12:02:02.858Z,24.87
2023-05-14T12:03:03.334Z,24.93
2023-05-14T12:04:04.308Z,24.73
2023-05-14T12:05:05.198Z,24.46
2023-05-14T12:06:06.107Z,24.31
2023-05-14T12:07:07.033Z,24.06
2023-05-14T12:08:07.971Z,24.03
2023-05-14T12:09:08.816Z,23.98
2023-05-14T12:10:09.725Z,24.09
2023-05-14T12:11:10.665Z,24.27
2023-05-14T12:12:11.596Z,24.24
2023-05-14T12:13:12.066Z,24.06
2023-05-14T12:14:13.033Z,24.03
2023-05-14T12:15:14.110Z,23.97
2023-05-14T12:16:14.592Z,24.10
2023-05-14T12:17:14.999Z,24.22
2023-05-14T12:18:24.064Z,24.39
2023-05-14T12:19:17.439Z,24.49
2023-05-14T12:20:17.334Z,24.30
2023-05-14T12:21:18.304Z,24.28
2023-05-14T12:22:19.291Z,24.09
2023-05-14T12:23:20.150Z,24.05
2023-05-14T12:24:21.078Z,23.94
2023-05-14T12:25:22.088Z,24.00
2023-05-14T12:26:22.976Z,24.10
2023-05-14T12:27:23.919Z,24.31
2023-05-14T12:28:24.880Z,24.46
2023-05-14T12:29:25.836Z,24.39
2023-05-14T12:30:26.343Z,24.39
2023-05-14T12:31:26.872Z,24.37
2023-05-14T12:32:27.344Z,24.35
2023-05-14T12:33:27.813Z,24.32
2023-05-14T12:34:28.732Z,24.50
2023-05-14T12:35:29.627Z,24.49
2023-05-14T12:36:30.598Z,24.39
2023-05-14T12:37:31.529Z,24.34
2023-05-14T12:38:32.571Z,24.22
2023-05-14T12:39:33.012Z,24.15
2023-05-14T12:40:33.896Z,24.05
2023-05-14T12:41:34.869Z,24.05
2023-05-14T12:42:35.755Z,24.05
2023-05-14T12:43:36.720Z,23.87
2023-05-14T12:44:37.217Z,23.84
2023-05-14T12:45:38.148Z,23.87
2023-05-14T12:46:39.098Z,23.73
2023-05-14T12:47:40.073Z,23.75
2023-05-14T12:48:40.573Z,23.85
2023-05-14T12:49:41.050Z,24.00
2023-05-14T12:50:41.987Z,24.12
2023-05-14T12:51:42.877Z,24.31
2023-05-14T12:52:43.823Z,24.55
2023-05-14T12:53:44.332Z,24.93
2023-05-14T12:54:45.208Z,25.15
2023-05-14T12:55:46.087Z,25.15
2023-05-14T12:56:47.075Z,25.40
2023-05-14T12:57:48.018Z,25.43
2023-05-14T12:58:48.943Z,25.42
2023-05-14T12:59:49.917Z,25.55
2023-05-14T13:00:50.893Z,25.65
2023-05-14T13:01:51.819Z,25.60
2023-05-14T13:02:52.768Z,25.77
2023-05-14T13:03:53.661Z,25.80
2023-05-14T13:04:54.599Z,25.97
2023-05-14T13:05:55.052Z,26.18
2023-05-14T13:06:56.047Z,26.12
2023-05-14T13:07:56.489Z,25.85
2023-05-14T13:08:57.361Z,25.75
2023-05-14T13:09:58.247Z,25.69